Date,TemperatureHighF,TemperatureAvgF,TemperatureLowF,DewpointHighF,DewpointAvgF,DewpointLowF,HumidityHigh,HumidityAvg,HumidityLow,PressureMaxIn,PressureMinIn,WindSpeedMaxMPH,WindSpeedAvgMPH,GustSpeedMaxMPH,PrecipitationSumIn
2013-1-1,61.9,48.5,40.3,33.3,27.0,22.1,54,44,34,30.31,30.16,6,2,8,0.00
2013-1-2,65.3,52.4,40.5,35.4,26.6,19.0,44,37,33,30.22,30.10,8,3,15,0.00
2013-1-3,67.6,48.7,35.1,37.6,26.2,18.3,51,42,33,30.25,30.13,8,2,10,0.00
2013-1-4,65.7,47.9,35.4,35.8,25.2,16.0,51,42,33,30.34,30.25,8,2,9,0.00
2013-1-5,60.6,47.0,34.5,32.9,25.6,18.3,52,44,35,30.34,30.25,8,2,11,0.00
2013-1-6,60.1,50.9,42.6,43.5,31.4,27.1,71,48,35,30.28,30.10,10,2,15,0.04
2013-1-7,65.8,50.3,38.5,43.3,31.2,27.1,77,50,33,30.16,30.07,11,3,13,0.00
2013-1-8,65.1,50.1,38.7,39.2,31.7,23.9,64,50,34,30.19,30.10,8,2,10,0.00
2013-1-9,63.0,51.7,41.2,52.2,38.9,33.6,82,63,35,30.19,30.10,6,2,9,0.00
2013-1-10,60.6,53.6,44.1,37.4,29.2,20.1,54,39,35,30.19,30.01,15,7,24,0.00
2013-1-11,58.1,49.5,40.5,30.6,24.2,17.4,39,37,35,30.25,30.13,16,8,17,0.00
2013-1-12,55.6,45.1,33.6,28.6,20.9,12.0,41,38,35,30.22,30.13,8,3,12,0.00
2013-1-13,56.1,43.4,33.1,28.8,20.0,13.1,43,39,35,30.25,30.13,9,2,13,0.00
2013-1-14,58.1,47.2,37.4,30.6,22.4,14.7,39,37,35,30.40,30.22,14,6,17,0.00
2013-1-15,61.2,45.2,32.7,32.9,21.0,11.7,41,38,34,30.52,30.40,11,2,14,0.00
2013-1-16,63.5,48.0,34.7,34.7,23.7,14.7,45,38,34,30.43,30.19,9,2,11,0.00
2013-1-17,75.0,54.1,39.9,42.3,27.7,16.9,40,36,31,30.22,30.13,9,2,11,0.00
2013-1-18,77.7,53.8,37.9,44.6,27.9,17.1,43,37,31,30.19,30.13,8,2,10,0.00
2013-1-19,72.1,54.2,39.6,40.6,28.0,17.2,44,37,32,30.25,30.16,7,2,8,0.00
2013-1-20,74.5,52.8,38.5,41.9,26.6,15.6,40,36,31,30.19,30.07,9,2,11,0.00
2013-1-21,73.0,53.8,37.0,41.4,27.8,16.0,43,37,32,30.16,30.07,11,2,12,0.00
2013-1-22,76.1,52.8,37.4,43.3,27.7,17.1,48,38,31,30.16,30.10,8,1,9,0.00
2013-1-23,70.2,58.8,47.5,38.8,31.3,23.2,44,35,32,30.22,30.07,8,2,13,0.00
2013-1-24,72.3,60.6,54.5,43.5,37.3,33.3,58,43,32,30.22,30.19,6,2,10,0.67
2013-1-25,67.6,60.8,58.1,58.1,47.7,39.0,80,64,36,30.19,30.04,6,2,8,0.17
2013-1-26,68.5,58.8,55.6,63.1,52.4,40.5,95,81,36,30.10,29.99,8,2,11,0.17
2013-1-27,61.2,55.7,46.8,53.1,35.4,23.5,87,48,35,30.10,30.04,14,6,14,0.00
2013-1-28,46.4,41.9,39.0,23.4,19.3,17.1,41,40,39,30.16,30.10,2,0,4,0.00
2013-1-29,60.1,52.5,44.6,32.4,27.9,25.0,48,39,35,30.31,30.25,8,2,12,0.00
2013-1-30,65.7,51.3,39.6,35.8,29.2,23.4,56,43,33,30.43,30.28,8,2,9,0.00
2013-1-31,71.2,54.8,41.7,39.9,32.2,26.8,57,44,32,30.31,30.19,9,2,11,0.00
2013-2-1,68.4,55.5,44.1,41.0,34.5,30.2,69,47,33,30.25,30.19,8,1,10,0.00
2013-2-2,69.1,58.6,50.9,46.0,37.9,33.1,72,48,33,30.25,30.19,8,2,11,0.00
2013-2-3,68.7,58.8,50.2,40.6,37.7,33.6,63,46,33,30.22,30.10,11,3,11,0.00
2013-2-4,61.3,54.5,47.8,50.5,40.4,33.8,81,61,37,30.19,30.07,8,2,11,0.00
2013-2-5,60.6,55.4,53.1,37.2,33.1,30.9,51,43,35,30.19,30.07,8,2,11,0.00
2013-2-6,61.7,55.2,46.8,33.8,31.6,29.1,51,41,35,30.19,30.10,9,3,13,0.00
2013-2-7,59.0,51.8,41.5,43.3,31.2,27.7,71,46,36,30.22,30.07,8,3,13,0.00
2013-2-8,56.3,50.6,41.2,30.6,26.5,23.5,49,39,36,30.07,29.99,16,7,23,0.13
2013-2-9,58.5,46.6,35.4,42.8,26.9,21.4,74,48,35,30.19,30.01,8,2,11,0.00
2013-2-10,58.5,47.0,41.2,30.9,26.5,23.5,49,45,35,30.19,30.13,8,2,8,0.00
2013-2-11,61.2,53.3,41.5,35.4,28.4,21.9,56,38,34,30.31,30.19,13,4,15,0.00
2013-2-12,60.8,49.4,36.7,32.9,26.8,18.5,50,42,35,30.43,30.31,11,3,13,0.00
2013-2-13,62.1,49.4,36.9,33.4,27.7,21.4,54,44,34,30.34,30.22,9,2,11,0.00
2013-2-14,64.6,51.4,38.5,34.9,28.9,23.7,58,43,33,30.28,30.16,11,2,12,0.00
2013-2-15,85.3,60.2,41.2,49.5,34.1,24.4,52,39,29,30.28,30.19,16,3,20,0.00
2013-2-16,78.4,59.3,42.8,45.3,31.3,18.9,39,35,31,30.22,30.07,11,2,12,0.00
2013-2-17,64.2,51.0,44.8,45.7,34.3,25.5,81,55,34,30.07,30.01,9,2,15,0.00
2013-2-18,59.2,55.0,53.8,31.5,28.9,27.7,39,37,35,30.10,30.04,8,4,9,0.00
2013-2-19,59.0,53.6,48.6,31.5,28.0,25.2,50,37,35,30.07,29.81,15,7,24,0.04
2013-2-20,61.9,51.8,40.8,33.3,26.0,17.8,39,36,34,30.07,29.81,15,7,21,0.00
2013-2-21,61.3,50.5,39.7,32.9,26.1,16.9,48,39,34,30.16,30.07,10,3,13,0.00
2013-2-22,62.6,49.9,37.8,34.2,27.8,21.4,54,43,34,30.28,30.16,10,2,11,0.00
2013-2-23,61.3,50.5,38.8,35.2,29.8,23.7,55,46,34,30.25,30.01,11,3,12,0.00
2013-2-24,74.3,56.0,43.2,41.7,30.8,20.1,56,39,31,30.28,30.07,15,5,20,0.00
2013-2-25,66.0,51.8,37.9,36.1,26.7,15.3,47,38,33,30.28,30.16,11,3,13,0.00
2013-2-26,62.2,51.1,39.2,34.0,27.9,21.6,51,41,34,30.19,30.10,10,2,13,0.00
2013-2-27,75.0,56.3,41.5,42.3,31.2,18.9,53,39,31,30.34,30.19,11,4,15,0.00
2013-2-28,77.9,57.7,39.7,44.8,31.6,19.8,50,38,31,30.40,30.31,11,2,15,0.00
2013-3-1,84.0,61.5,43.7,48.4,32.8,19.8,38,34,29,30.40,30.25,11,2,15,0.00
2013-3-2,75.6,59.6,45.3,42.8,32.4,21.2,60,36,31,30.28,30.16,8,2,10,0.00
2013-3-3,63.5,57.2,51.4,49.8,41.4,34.7,78,58,35,30.19,30.07,14,5,15,0.00
2013-3-4,64.9,56.8,49.8,39.0,35.1,33.1,55,45,34,30.19,30.10,9,4,15,0.00
2013-3-5,64.0,56.2,49.5,41.0,34.3,29.1,60,44,34,30.22,30.13,11,4,11,0.00
2013-3-6,61.9,55.9,46.6,35.4,30.2,23.5,49,37,34,30.25,30.10,11,5,13,0.00
2013-3-7,62.4,56.8,53.4,38.3,34.0,30.0,53,42,34,30.10,29.96,11,5,14,0.00
2013-3-8,58.5,53.2,47.3,37.2,30.8,25.5,58,43,35,30.10,29.87,13,5,15,0.41
2013-3-9,62.8,54.9,46.0,34.0,30.2,23.7,50,39,34,30.31,30.10,13,4,15,0.00
2013-3-10,71.1,55.6,42.4,39.7,33.0,27.0,57,43,32,30.34,30.25,13,4,17,0.00
2013-3-11,65.3,54.0,42.4,42.4,34.7,29.1,70,49,34,30.25,30.13,9,2,12,0.00
2013-3-12,64.6,54.7,46.9,52.5,39.4,33.1,93,59,34,30.19,30.10,8,3,11,0.00
2013-3-13,67.6,56.1,49.5,55.9,41.3,34.2,94,61,33,30.19,30.10,8,4,11,0.00
2013-3-14,66.9,56.5,50.9,57.0,43.7,34.9,98,67,33,30.19,30.10,9,4,11,0.00
2013-3-15,61.9,56.1,53.2,49.1,43.6,34.3,84,65,36,30.13,30.04,9,4,12,0.00
2013-3-16,62.8,56.1,52.3,48.4,39.0,32.2,83,55,34,30.07,30.01,11,4,12,0.00
2013-3-17,63.7,57.9,54.0,37.6,35.0,32.7,50,43,34,30.10,30.01,11,5,11,0.00
2013-3-18,62.6,58.1,51.8,36.7,33.8,32.2,47,40,34,30.19,30.07,8,4,11,0.00
2013-3-19,64.2,56.1,48.7,45.7,36.0,32.2,67,48,34,30.19,30.13,11,3,12,0.00
2013-3-20,63.1,56.8,50.0,47.8,37.8,34.7,70,50,35,30.19,30.04,11,3,13,0.00
2013-3-21,65.8,58.8,52.0,49.3,39.4,34.9,71,50,34,30.04,29.93,10,4,13,0.00
2013-3-22,64.8,58.2,50.9,48.0,39.1,34.2,72,51,34,30.01,29.90,11,4,13,0.00
2013-3-23,66.2,59.0,52.5,41.9,37.9,34.2,60,47,33,30.10,29.99,10,3,12,0.00
2013-3-24,67.1,59.9,54.7,45.5,39.1,34.0,67,48,33,30.13,30.01,14,3,15,0.00
2013-3-25,66.2,58.7,53.4,49.3,41.6,35.2,74,55,34,30.10,30.01,8,3,12,0.00
2013-3-26,65.8,59.4,54.9,48.2,39.5,33.1,74,50,34,30.10,30.01,11,4,13,0.00
2013-3-27,65.1,59.1,52.3,39.0,36.0,33.8,53,43,34,30.16,30.04,10,3,13,0.00
2013-3-28,66.2,60.5,54.5,41.9,37.1,34.3,57,42,34,30.19,30.10,13,4,15,0.00
2013-3-29,64.8,58.0,53.6,48.4,41.9,35.2,74,56,35,30.22,30.16,11,4,14,0.00
2013-3-30,63.0,58.8,54.1,45.5,38.8,34.5,65,49,35,30.28,30.16,13,5,14,0.00
2013-3-31,67.5,60.5,53.8,41.2,38.7,35.6,56,45,34,30.28,30.19,13,5,15,0.00
2013-4-1,64.9,59.8,56.3,41.2,36.1,32.7,56,42,34,30.31,30.19,13,6,18,0.00
2013-4-2,65.1,59.7,53.8,40.1,36.6,32.5,54,43,34,30.25,30.13,11,4,13,0.00
2013-4-3,66.6,59.9,54.0,47.8,41.3,35.2,72,52,34,30.22,30.10,11,4,14,0.00
2013-4-4,65.7,60.2,57.0,46.8,38.8,34.7,66,46,35,30.25,30.13,13,6,15,0.00
2013-4-5,65.8,60.4,57.7,50.4,41.1,35.6,72,50,35,30.22,30.13,11,4,15,0.00
2013-4-6,67.1,61.5,57.4,43.0,38.6,35.2,55,43,34,30.22,30.07,12,5,14,0.00
2013-4-7,67.3,61.8,57.6,45.0,39.4,35.2,58,44,33,30.10,29.96,10,5,14,0.00
2013-4-8,68.4,61.2,56.3,43.5,35.4,30.4,57,39,33,29.96,29.81,17,9,24,0.00
2013-4-9,70.3,60.0,48.6,39.0,32.5,23.5,46,35,32,30.10,29.93,17,6,21,0.00
2013-4-10,75.6,60.1,45.9,42.8,34.8,28.2,51,39,31,30.19,30.10,13,4,17,0.00
2013-4-11,69.4,59.0,49.1,39.0,34.7,29.5,48,41,33,30.10,29.90,11,4,16,0.00
2013-4-12,66.0,60.1,55.8,42.8,35.6,32.5,61,40,34,29.99,29.87,13,5,17,0.00
2013-4-13,62.6,57.9,55.0,50.0,40.0,32.5,82,53,37,30.01,29.93,8,4,11,0.00
2013-4-14,66.2,59.3,54.5,37.4,34.7,31.8,51,40,33,29.99,29.93,11,6,15,0.00
2013-4-15,67.8,59.5,56.1,38.7,34.0,31.6,50,38,33,30.01,29.93,11,6,13,0.00
2013-4-16,66.2,58.0,50.9,36.3,30.9,25.5,40,36,33,30.07,29.96,18,6,18,0.00
2013-4-17,70.2,62.0,52.0,38.8,33.3,25.9,36,34,32,30.22,30.07,15,7,18,0.00
2013-4-18,82.4,64.3,47.3,47.1,35.0,23.0,41,34,29,30.28,30.19,16,6,22,0.00
2013-4-19,80.8,62.7,45.5,46.4,34.9,21.7,46,36,30,30.25,30.10,11,3,13,0.00
2013-4-20,70.0,61.6,53.2,48.7,39.4,35.8,70,45,32,30.10,29.99,11,4,11,0.00
2013-4-21,69.1,60.9,53.8,53.6,41.7,36.3,80,51,33,30.10,30.01,11,3,14,0.00
2013-4-22,65.5,60.7,57.4,39.9,35.9,33.8,51,40,34,30.10,30.01,9,3,11,0.00
2013-4-23,68.5,61.1,57.7,38.7,35.2,32.5,48,38,33,30.07,29.96,13,5,16,0.00
2013-4-24,66.9,60.3,58.1,41.2,36.6,33.1,52,41,33,30.07,29.99,9,3,11,0.00
2013-4-25,69.3,62.8,57.2,38.8,35.7,32.4,42,37,33,30.22,30.04,11,4,15,0.00
2013-4-26,69.3,60.8,50.9,40.8,36.8,32.2,52,41,33,30.25,30.19,13,4,17,0.00
2013-4-27,68.0,60.2,51.4,50.2,39.7,37.0,70,48,34,30.25,30.07,15,4,15,0.00
2013-4-28,67.5,61.7,57.6,48.9,40.4,36.1,72,47,34,30.10,29.99,11,5,13,0.00
2013-4-29,67.3,60.9,57.9,46.8,39.9,35.4,66,47,34,29.99,29.90,11,5,13,0.00
2013-4-30,67.5,61.7,59.0,37.9,36.2,34.7,44,39,33,29.99,29.93,9,5,13,0.00
2013-5-1,69.4,63.6,59.9,42.8,38.7,35.2,52,40,33,30.19,29.99,11,4,15,0.00
2013-5-2,86.0,67.0,52.7,53.1,42.3,34.7,72,43,29,30.19,30.10,11,4,15,0.00
2013-5-3,81.1,66.8,52.2,48.9,41.1,35.1,62,41,30,30.10,29.90,11,4,15,0.00
2013-5-4,71.8,63.9,59.0,47.7,39.7,33.8,61,42,32,29.96,29.84,15,8,19,0.00
2013-5-5,68.7,62.4,59.4,40.3,36.0,33.6,49,38,33,30.04,29.93,15,7,17,0.00
2013-5-6,71.2,63.1,58.1,55.2,42.9,35.8,84,50,32,30.13,29.99,11,6,15,0.37
2013-5-7,70.9,63.3,56.7,43.3,38.6,34.9,56,41,32,30.16,30.07,11,4,13,0.00
2013-5-8,69.4,63.1,58.3,40.5,37.7,35.6,48,39,33,30.19,30.16,15,5,17,0.00
2013-5-9,68.2,62.3,55.9,43.0,38.6,36.1,53,42,33,30.19,30.13,12,5,15,0.00
2013-5-10,70.7,64.0,57.2,47.1,41.3,37.0,58,44,33,30.19,30.10,13,5,17,0.00
2013-5-11,73.0,64.5,58.3,53.6,44.9,39.6,74,51,33,30.16,30.10,11,4,13,0.00
2013-5-12,77.0,65.9,60.3,60.8,47.4,40.1,87,55,31,30.16,30.04,9,3,12,0.00
2013-5-13,79.3,68.8,59.5,57.0,44.1,37.4,70,43,30,30.10,30.01,13,4,15,0.00
2013-5-14,70.9,64.1,58.6,43.5,39.7,36.7,52,41,33,30.13,30.04,15,6,17,0.00
2013-5-15,70.0,63.5,56.8,44.2,38.9,36.1,55,41,33,30.19,30.10,10,4,13,0.00
2013-5-16,69.8,64.3,61.3,39.4,37.6,35.8,44,37,33,30.16,30.10,12,4,15,0.00
2013-5-17,70.5,64.8,60.8,41.9,39.1,36.3,47,39,33,30.22,30.10,11,5,15,0.00
2013-5-18,70.7,64.0,56.8,45.1,38.9,36.5,54,40,33,30.28,30.22,13,5,15,0.00
2013-5-19,70.9,64.5,57.6,43.9,39.9,36.5,54,41,33,30.28,30.19,10,4,14,0.00
2013-5-20,72.0,65.2,58.1,53.8,42.9,38.8,70,46,33,30.28,30.22,11,4,13,0.00
2013-5-21,72.3,65.6,61.9,45.1,42.2,39.0,53,43,33,30.31,30.22,13,4,13,0.00
2013-5-22,72.1,65.4,62.2,42.6,38.5,35.6,47,37,32,30.25,30.19,9,4,13,0.00
2013-5-23,71.1,63.9,58.6,39.7,36.8,32.2,44,37,32,30.37,30.25,13,6,15,0.00
2013-5-24,70.5,63.9,57.9,39.7,37.3,32.0,46,38,32,30.46,30.37,12,6,14,0.00
2013-5-25,70.7,63.2,56.3,39.6,37.3,35.2,46,39,32,30.52,30.43,11,5,13,0.00
2013-5-26,69.4,63.3,56.5,41.5,38.0,36.0,49,40,33,30.58,30.49,11,4,13,0.00
2013-5-27,71.2,65.2,61.3,42.3,39.1,36.0,47,39,33,30.52,30.40,13,5,15,0.00
2013-5-28,72.1,66.1,61.2,45.7,41.3,38.1,50,41,32,30.43,30.31,13,6,16,0.00
2013-5-29,74.1,67.0,62.1,45.3,42.5,39.0,51,42,32,30.40,30.31,11,4,13,0.00
2013-5-30,72.5,66.6,60.3,48.9,42.7,39.7,59,43,32,30.49,30.34,13,5,14,0.00
2013-5-31,72.3,66.5,63.0,45.5,41.7,38.8,50,41,32,30.52,30.43,13,5,13,0.00
2013-6-1,72.5,67.0,64.2,45.5,43.4,40.3,49,43,34,30.49,30.40,13,4,17,0.00
2013-6-2,69.6,65.6,63.7,44.6,41.1,37.6,49,41,34,30.49,30.40,9,1,13,0.00
2013-6-3,71.2,66.1,63.1,41.9,39.4,37.6,43,38,33,30.58,30.46,11,4,13,0.00
2013-6-4,70.9,65.6,62.2,43.2,39.6,37.4,48,39,33,30.66,30.55,13,4,17,0.00
2013-6-5,71.1,65.5,60.4,41.5,39.4,36.5,48,39,33,30.69,30.61,17,6,19,0.00
2013-6-6,68.9,63.7,60.1,41.9,40.4,38.3,50,43,34,30.69,30.58,12,5,17,0.00
2013-6-7,69.8,64.0,61.5,41.9,40.0,38.3,48,42,34,30.64,30.52,12,4,14,0.00
2013-6-8,67.8,63.6,61.5,43.9,40.8,38.3,51,44,35,30.66,30.52,9,3,12,0.00
2013-6-9,68.4,63.4,57.9,43.9,40.2,37.2,49,43,33,30.69,30.64,11,3,12,0.00
2013-6-10,72.1,65.9,57.7,43.3,40.4,37.4,52,40,32,30.75,30.66,15,5,16,0.00
2013-6-11,72.5,65.4,58.5,51.1,42.9,40.3,65,45,33,30.72,30.64,13,5,17,0.00
2013-6-12,69.6,64.9,63.0,45.7,42.6,39.2,52,45,35,30.84,30.69,11,4,13,0.00
2013-6-13,72.1,66.0,60.4,43.7,40.6,37.8,53,40,32,30.84,30.69,13,4,15,0.00
2013-6-14,71.4,64.8,59.7,47.5,40.7,37.0,60,42,33,30.75,30.69,11,4,14,0.00
2013-6-15,70.3,64.9,61.2,42.3,39.4,37.4,49,39,32,30.84,30.72,15,5,15,0.00
2013-6-16,71.8,65.6,60.3,43.2,39.9,37.0,51,39,32,30.90,30.78,13,4,15,0.00
2013-6-17,70.2,65.1,59.0,48.6,42.4,38.8,63,45,34,30.87,30.75,11,4,14,0.00
2013-6-18,71.2,64.0,59.4,54.1,45.4,38.8,73,53,33,30.84,30.72,9,3,13,0.00
2013-6-19,72.5,66.7,60.6,46.4,41.6,38.1,55,41,33,30.78,30.69,13,5,15,0.00
2013-6-20,73.4,66.0,57.4,54.3,43.2,39.2,71,45,32,30.81,30.72,11,4,15,0.00
2013-6-21,73.8,66.5,59.4,56.1,44.2,40.1,71,46,32,30.87,30.78,11,4,13,0.00
2013-6-22,71.8,67.0,62.8,47.3,42.9,38.7,55,42,32,30.90,30.78,11,4,14,0.00
2013-6-23,70.5,66.1,63.7,45.5,40.4,38.3,51,39,33,30.90,30.78,11,4,13,0.00
2013-6-25,71.6,71.6,71.6,41.7,41.7,41.7,34,34,34,31.02,31.02,8,8,10,0.00
2013-6-26,69.1,66.8,65.7,54.9,50.3,45.7,68,56,43,31.02,30.96,6,3,8,0.00
2013-6-27,73.4,67.8,63.3,60.1,51.0,42.8,89,57,34,31.02,20.59,10,4,13,0.00
2013-6-28,63.3,63.2,63.1,60.1,60.0,59.9,89,89,89,17.99,17.99,0,0,4,0.00
2013-6-29,77.5,71.7,68.0,51.3,46.0,43.5,55,40,32,23.22,17.73,11,5,13,0.00
2013-6-30,79.3,70.6,65.3,64.4,50.5,43.9,81,51,32,17.73,17.73,15,4,20,0.00
2013-7-1,78.4,70.1,66.0,57.9,50.9,44.2,70,52,32,17.73,17.73,10,3,12,0.00
2013-7-2,74.1,68.6,65.8,61.7,50.3,43.2,80,54,33,17.73,17.73,11,3,14,0.00
2013-7-3,72.5,67.6,64.4,55.4,48.9,43.3,69,53,35,17.73,17.73,11,4,13,0.00
2013-7-4,72.9,67.4,64.0,55.2,46.1,40.3,71,48,34,17.73,17.73,11,5,13,0.00
2013-7-5,73.6,67.9,65.1,47.1,44.5,41.2,51,43,33,17.73,17.73,10,4,13,0.00
2013-7-6,73.4,68.3,65.7,47.7,44.9,42.1,52,43,33,17.73,17.73,10,4,14,0.00
2013-7-7,75.0,68.8,64.8,47.8,45.6,42.6,53,44,33,17.73,17.73,15,4,15,0.00
2013-7-8,77.4,68.1,59.4,55.6,45.5,42.8,70,46,31,17.73,17.73,11,4,16,0.00
2013-7-9,77.9,68.3,61.7,56.7,46.7,42.6,72,47,32,17.73,17.73,10,4,14,0.00
2013-7-10,75.4,68.8,65.3,57.4,50.0,45.1,69,52,34,17.73,17.73,8,2,11,0.00
2013-7-11,73.4,69.1,67.1,53.1,49.3,45.9,60,50,38,17.73,17.73,8,1,10,0.00
2013-7-12,76.8,69.7,63.9,56.3,48.5,43.5,69,48,32,17.73,17.73,11,4,15,0.00
2013-7-13,74.8,67.8,63.0,51.3,44.9,41.5,62,45,33,17.73,17.73,12,4,14,0.00
2013-7-14,76.3,69.1,64.2,54.5,47.9,43.3,69,48,32,17.73,17.73,11,4,13,0.00
2013-7-15,76.1,69.6,63.0,57.2,47.1,42.3,69,46,32,17.73,17.73,12,4,17,0.00
2013-7-16,74.8,67.0,57.2,52.7,44.1,41.0,66,45,32,17.73,17.73,13,5,15,0.00
2013-7-17,77.2,67.6,56.1,56.3,44.9,40.8,72,46,31,17.73,17.73,13,-10,17,0.00
2013-7-18,72.9,66.6,60.6,51.4,45.2,40.8,66,47,33,17.73,17.73,13,-135,15,0.00
2013-7-19,71.6,66.5,61.2,55.4,46.7,41.7,74,51,34,17.73,17.73,10,-11,12,0.00
2013-7-20,69.6,66.5,64.8,48.0,45.8,44.1,52,47,40,29.93,17.73,6,-27,11,0.00
2013-7-21,69.3,66.6,64.6,49.1,46.3,44.2,55,48,42,30.01,29.87,6,0,9,0.00
2013-7-22,73.9,68.6,64.0,54.0,46.2,42.3,64,46,34,30.07,29.99,12,4,16,0.00
2013-7-23,73.6,68.1,63.5,52.7,45.6,41.7,62,45,33,30.13,30.01,14,5,17,0.00
2013-7-24,72.1,66.7,63.0,48.6,45.0,41.5,59,46,34,30.07,29.99,13,5,17,0.00
2013-7-25,72.5,66.0,62.2,52.2,45.9,40.3,68,50,34,30.10,30.01,12,4,16,0.00
2013-7-26,73.8,67.3,63.1,54.5,45.9,41.9,68,47,34,30.16,30.07,12,4,13,0.00
2013-7-27,71.2,65.7,61.9,54.0,46.3,41.7,73,51,35,30.10,29.99,12,5,15,0.00
2013-7-28,71.6,65.2,62.1,52.2,44.2,39.6,70,48,33,30.01,29.96,11,4,14,0.00
2013-7-29,71.8,66.3,62.2,43.5,40.4,38.3,49,39,32,30.10,29.99,13,4,15,0.00
2013-7-30,71.6,64.9,58.5,48.4,41.5,38.7,60,43,33,30.19,30.13,15,5,17,0.00
2013-7-31,71.2,64.8,59.7,45.3,40.9,37.9,55,42,33,30.16,30.07,13,4,16,0.00
2013-8-1,72.1,65.4,60.3,46.0,41.8,38.5,56,43,32,30.10,30.01,13,-10,15,0.00
2013-8-2,73.9,66.7,60.8,48.4,43.1,39.4,59,43,32,30.07,29.99,10,4,13,0.00
2013-8-3,73.4,66.9,61.7,48.2,42.9,39.7,58,43,32,30.07,30.01,11,4,13,0.00
2013-8-4,72.5,65.6,60.4,46.8,43.4,40.5,55,45,33,30.10,30.01,13,4,15,0.00
2013-8-5,71.1,64.1,58.8,52.2,45.1,38.8,72,52,33,30.07,30.01,11,4,15,0.00
2013-8-6,72.0,65.5,61.2,51.1,42.2,38.5,68,44,33,30.10,30.04,12,4,15,0.00
2013-8-7,70.3,64.6,58.5,50.7,42.6,38.5,67,46,34,30.16,30.07,9,3,13,0.00
2013-8-8,71.1,64.9,57.6,53.8,44.2,39.4,72,49,34,30.07,29.99,12,5,15,0.00
2013-8-9,72.5,64.5,58.3,51.6,43.5,38.7,71,48,33,30.04,29.99,11,4,13,0.00
2013-8-10,71.1,65.5,61.3,46.4,42.1,38.5,58,43,33,30.10,30.04,11,3,12,0.00
2013-8-11,72.0,65.2,59.4,52.0,44.5,38.7,70,49,33,30.07,29.99,12,4,15,0.00
2013-8-12,71.6,65.6,61.0,52.7,44.3,39.9,71,47,34,30.04,29.99,11,4,13,0.00
2013-8-13,71.6,65.8,61.7,53.6,46.6,40.6,73,52,34,30.04,29.96,11,4,14,0.00
2013-8-14,70.5,65.8,62.4,53.8,47.7,41.4,71,54,35,30.01,29.93,12,3,11,0.00
2013-8-15,72.7,67.1,63.9,52.2,46.6,42.1,63,49,34,30.04,29.96,9,3,11,0.00
2013-8-16,75.2,67.1,63.3,60.8,49.7,42.3,85,56,32,30.04,29.99,10,3,13,0.00
2013-8-17,73.9,65.7,61.9,61.9,49.4,41.2,91,59,32,30.04,29.90,11,4,14,0.00
2013-8-18,72.5,66.1,62.1,54.5,47.1,41.0,74,52,33,29.99,29.90,11,3,13,0.00
2013-8-19,72.0,66.9,63.0,50.0,45.6,41.0,57,47,33,30.04,29.96,11,3,13,0.00
2013-8-20,73.4,67.0,61.9,52.9,45.2,41.5,67,47,33,30.01,29.93,13,4,15,0.00
2013-8-21,75.0,67.3,60.4,56.1,44.8,40.3,71,46,32,30.01,29.96,12,4,15,0.00
2013-8-22,77.2,68.6,60.6,54.5,44.0,39.2,67,42,31,30.01,29.90,12,4,13,0.00
2013-8-23,76.3,66.8,59.7,56.1,45.9,41.0,73,49,31,29.96,29.84,13,4,13,0.00
2013-8-24,70.2,63.5,57.2,59.5,47.3,40.1,81,58,34,29.99,29.87,11,3,12,0.00
2013-8-25,72.1,64.1,60.3,54.7,48.0,40.1,79,58,33,29.99,29.93,9,2,12,0.00
2013-8-26,78.4,68.4,61.2,63.0,48.2,41.4,82,53,31,29.99,29.93,8,3,12,0.00
2013-8-27,76.6,70.3,65.3,46.4,43.4,39.9,50,38,31,29.93,29.87,9,5,13,0.00
2013-8-28,73.8,66.9,63.5,50.9,46.4,42.6,58,49,33,29.99,29.87,8,2,10,0.00
2013-9-2,72.9,68.8,67.5,53.1,50.6,45.1,58,53,37,29.96,29.90,12,3,13,0.00
2013-9-3,80.8,72.0,66.4,60.4,50.2,42.6,71,49,30,30.01,29.93,9,3,14,0.00
2013-9-4,82.2,72.7,66.2,56.3,47.2,41.4,61,42,30,29.99,29.96,11,3,15,0.00
2013-9-5,83.3,71.7,64.4,51.6,45.6,41.9,55,40,29,29.99,29.93,9,3,11,0.00
2013-9-6,80.8,72.0,64.2,58.6,48.1,42.4,67,45,30,29.96,29.90,11,3,12,0.00
2013-9-7,79.3,70.6,64.8,59.5,48.7,43.3,69,48,31,29.96,29.87,11,4,15,0.00
2013-9-8,73.8,67.4,62.1,60.1,47.2,41.7,74,50,33,29.93,29.87,12,3,15,0.00
2013-9-9,71.1,65.6,61.5,52.3,45.2,40.8,64,49,34,29.90,29.84,13,3,16,0.00
2013-9-10,72.3,65.7,60.3,50.4,43.4,38.8,65,46,32,30.01,29.90,11,3,14,0.00
2013-9-11,72.7,65.2,58.5,54.1,44.0,39.9,70,48,32,30.07,30.01,12,3,13,0.00
2013-9-12,75.0,65.8,57.2,58.3,45.4,41.5,75,50,32,30.01,29.93,10,3,15,0.00
2013-9-13,72.0,65.5,59.4,60.4,48.1,41.7,83,56,34,29.93,29.78,12,2,13,0.00
2013-9-14,74.5,65.9,60.8,60.6,48.3,41.9,88,55,33,29.81,29.72,10,3,11,0.00
2013-9-15,77.2,67.9,62.2,60.8,49.4,40.8,82,54,31,29.87,29.78,13,-39,15,0.00
2013-9-16,77.0,67.4,60.3,62.6,47.4,41.9,78,51,31,29.90,29.84,13,4,13,0.00
2013-9-17,72.7,65.8,61.9,61.2,48.4,40.6,85,56,33,29.93,29.84,11,3,13,0.00
2013-9-18,74.3,67.6,62.2,49.3,42.4,39.0,59,41,32,29.90,29.84,9,3,13,0.00
2013-9-19,74.8,66.8,59.9,57.0,46.0,41.0,72,49,32,29.93,29.84,10,3,11,0.00
2013-9-20,71.4,66.9,65.3,45.1,43.9,41.5,47,43,35,29.99,29.90,8,2,11,0.00
2013-9-21,72.1,67.1,62.8,47.1,41.2,37.9,55,39,33,29.99,29.90,15,4,15,0.00
2013-9-22,72.3,64.6,56.5,52.0,42.2,37.9,67,45,32,29.93,29.87,11,3,15,0.00
2013-9-23,77.7,66.7,54.1,51.1,42.6,36.5,69,44,31,29.99,29.87,10,3,12,0.00
2013-9-24,77.7,67.0,56.3,47.3,42.7,39.4,57,43,31,30.01,29.93,12,4,14,0.00
2013-9-25,75.6,67.5,61.3,52.7,44.3,38.5,66,45,31,29.96,29.81,14,4,15,0.00
2013-9-26,72.0,65.4,56.1,41.9,37.8,30.9,46,36,32,29.96,29.81,13,3,18,0.00
2013-9-27,82.8,64.8,50.9,47.3,37.6,30.7,51,37,29,30.07,29.96,13,3,15,0.00
2013-9-28,79.2,68.3,58.5,45.3,38.0,31.5,36,33,30,30.13,30.04,15,3,15,0.00
2013-9-29,76.5,64.4,50.9,45.7,39.1,30.9,55,40,31,30.13,30.07,10,2,14,0.00
2013-9-30,74.3,64.4,55.0,58.5,44.9,40.3,77,51,32,30.07,29.96,11,2,12,0.00
2013-10-1,74.5,66.3,59.9,59.2,46.0,41.2,78,50,32,30.01,29.96,10,4,12,0.00
2013-10-2,72.3,67.2,63.3,45.0,41.3,38.8,47,39,32,30.04,29.99,9,3,12,0.00
2013-10-3,72.0,65.5,59.2,47.3,42.4,40.1,52,43,33,30.01,29.93,8,2,13,0.00
2013-10-4,84.9,70.6,59.9,49.1,43.0,40.1,53,38,29,30.10,29.96,17,5,22,0.00
2013-10-5,96.6,78.9,60.1,56.3,45.0,32.2,35,30,27,30.22,30.10,26,8,26,0.00
2013-10-6,92.1,69.3,51.1,53.4,38.3,25.7,37,33,27,30.13,30.04,12,2,12,0.00
2013-10-7,74.5,64.3,54.7,43.3,37.8,28.9,51,38,32,30.04,29.99,10,2,13,0.00
2013-10-8,72.1,63.0,54.5,55.4,41.0,34.7,74,47,32,30.01,29.90,9,2,14,0.00
2013-10-9,67.1,60.9,55.9,39.4,34.1,30.7,47,37,33,29.90,29.81,13,-50,19,0.08
2013-10-10,68.0,58.1,48.4,46.6,35.2,31.6,66,43,33,30.07,29.87,11,-26,11,0.00
2013-10-11,69.3,59.1,48.9,44.8,36.3,32.4,61,44,33,30.10,30.04,13,-55,15,0.00
2013-10-12,69.8,60.3,50.2,53.4,40.9,37.4,73,50,34,30.04,29.99,11,3,13,0.00
2013-10-13,69.4,62.0,55.0,48.2,39.2,35.4,64,44,33,30.10,29.99,10,2,13,0.00
2013-10-14,75.4,61.9,50.0,50.7,39.1,34.3,71,45,31,30.10,29.99,11,2,12,0.00
2013-10-15,79.2,64.0,51.8,51.6,40.2,32.4,77,44,30,30.04,29.99,11,-11,12,0.00
2013-10-16,82.0,65.8,51.1,47.5,38.4,29.7,53,38,30,30.13,30.04,9,2,12,0.00
2013-10-17,73.8,61.7,48.6,42.6,35.1,24.1,52,37,31,30.10,30.04,8,-39,12,0.00
2013-10-18,72.5,61.4,49.8,49.3,39.2,32.2,73,46,32,30.10,30.01,11,2,11,0.00
2013-10-19,74.1,62.5,56.1,59.2,45.7,37.4,86,57,32,30.10,30.04,8,2,11,0.00
2013-10-20,68.2,61.3,53.4,54.3,44.2,38.7,79,55,35,30.07,30.01,8,2,11,0.00
2013-10-21,68.4,61.1,54.5,52.5,42.8,36.7,78,53,33,30.07,30.01,9,2,11,0.00
2013-10-22,68.4,60.3,52.0,54.0,41.9,37.4,76,52,34,30.07,30.01,11,3,13,0.00
2013-10-23,66.7,61.9,54.3,47.5,39.5,36.0,62,44,34,30.07,30.01,11,3,12,0.00
2013-10-24,67.3,62.5,55.6,38.5,37.1,36.1,50,39,34,30.13,30.04,10,2,13,0.00
2013-10-25,68.2,62.1,56.1,42.4,39.7,37.2,54,44,34,30.22,30.10,10,2,12,0.00
2013-10-26,68.4,60.1,53.1,58.8,44.8,39.6,87,59,35,30.16,30.04,10,1,11,0.00
2013-10-27,68.0,62.3,55.8,55.4,45.0,36.5,82,55,35,30.07,29.90,11,4,12,0.00
2013-10-28,66.2,61.2,56.3,41.0,35.1,32.0,50,38,33,30.01,29.90,15,3,15,0.00
2013-10-29,66.2,58.6,51.4,49.3,36.2,32.0,72,44,33,30.10,30.01,11,3,12,0.04
2013-10-30,67.5,56.8,47.3,43.3,34.1,29.7,61,43,33,30.13,30.07,11,2,15,0.00
2013-10-31,70.7,58.1,46.8,39.6,34.1,27.7,58,42,32,30.16,30.07,11,2,13,0.00
2013-11-1,80.4,60.6,46.2,46.2,35.0,28.6,51,39,30,30.16,30.01,8,2,10,0.00
2013-11-2,75.6,60.8,47.5,47.7,38.7,30.7,63,45,31,30.07,29.99,11,2,15,0.00
2013-11-3,68.0,62.5,58.5,48.4,39.4,34.5,64,43,33,30.01,29.93,10,3,12,0.00
2013-11-4,70.2,61.5,53.1,39.7,35.0,32.2,49,37,33,30.01,29.87,10,3,13,0.00
2013-11-5,76.1,59.2,47.1,45.3,34.8,25.2,64,41,31,30.19,30.01,11,2,12,0.00
2013-11-6,74.5,58.9,43.9,41.9,31.1,19.9,38,35,31,30.28,30.16,10,1,11,0.00
2013-11-7,82.4,60.0,45.3,46.9,32.1,21.7,41,35,29,30.19,30.10,6,1,10,0.00
2013-11-8,70.7,58.7,46.6,45.1,37.6,29.3,66,46,33,30.13,30.04,8,2,10,0.00
2013-11-9,70.7,59.1,51.8,58.6,44.1,37.4,86,60,32,30.22,30.10,6,1,9,0.00
2013-11-10,81.7,59.2,49.6,58.8,40.7,31.3,85,54,30,30.25,30.16,11,2,14,0.00
2013-11-11,71.2,57.4,44.8,40.8,35.6,29.3,57,45,33,30.28,30.19,8,2,15,0.00
2013-11-12,70.9,58.9,49.6,48.0,38.3,32.0,74,48,32,30.34,30.22,6,1,8,0.00
2013-11-13,81.3,62.1,48.0,46.9,37.5,32.5,57,42,30,30.22,30.10,8,1,9,0.00
2013-11-14,80.4,63.1,49.1,52.7,38.7,29.1,74,42,30,30.13,30.01,8,3,13,0.00
2013-11-15,70.3,63.0,57.0,54.7,41.2,36.0,79,46,33,30.01,29.93,12,3,16,0.00
2013-11-16,68.0,59.9,52.0,45.1,34.9,30.2,63,40,33,30.22,29.99,8,2,11,0.00
2013-11-17,66.9,57.8,50.2,42.8,35.7,31.8,54,44,34,30.40,30.19,8,2,11,0.00
2013-11-18,67.1,58.1,47.7,50.4,37.0,33.6,70,47,34,30.46,30.37,11,3,12,0.00
2013-11-19,65.3,60.0,55.4,39.6,36.2,33.3,49,41,34,30.43,30.31,8,2,11,0.00
2013-11-20,67.8,60.2,53.1,45.1,38.6,35.4,57,45,34,30.37,30.31,9,2,11,0.04
2013-11-21,65.1,60.1,55.2,57.7,42.4,34.0,90,54,35,30.34,30.25,13,4,13,0.17
2013-11-22,65.1,56.4,51.6,46.8,34.5,26.2,69,45,33,30.43,30.28,8,2,13,0.00
2013-11-23,66.4,55.5,47.3,36.3,30.1,24.3,49,38,33,30.58,30.43,8,2,10,0.00
2013-11-24,67.1,54.0,44.4,37.0,30.7,26.4,51,42,33,30.72,30.58,9,2,11,0.00
2013-11-25,69.3,53.5,43.7,38.8,30.7,27.1,53,42,33,30.75,30.69,10,2,13,0.00
2013-11-26,69.8,56.0,43.5,39.2,32.7,26.6,53,42,32,30.75,30.64,9,1,12,0.00
2013-11-27,72.0,56.4,46.8,40.5,32.2,26.8,51,40,32,30.64,30.52,9,1,11,0.00
2013-11-28,67.6,54.9,45.9,39.4,33.1,27.1,52,44,33,30.75,30.55,6,1,10,0.00
2013-11-29,65.7,57.8,51.1,48.2,37.3,34.5,65,47,34,30.87,30.75,5,1,8,0.29
2013-11-30,71.8,57.6,49.1,52.0,37.8,31.3,77,50,32,30.90,30.78,9,2,11,0.00
2013-12-1,80.6,59.7,46.2,46.2,35.6,26.1,68,42,30,30.96,30.81,6,2,9,0.00
2013-12-2,69.1,56.4,44.8,39.6,31.8,22.6,54,40,33,30.87,30.58,6,1,8,0.00
2013-12-3,66.7,56.5,45.3,39.7,35.6,28.2,69,47,33,30.64,30.52,11,3,15,0.00
2013-12-4,61.5,52.8,43.9,32.9,26.8,20.5,39,36,34,30.78,30.58,10,3,12,0.00
2013-12-5,61.7,49.8,39.9,33.1,25.2,18.7,44,38,34,30.93,30.75,8,2,11,0.00
2013-12-6,62.2,49.5,40.6,33.4,26.2,20.8,49,40,34,31.02,30.93,11,2,11,0.00
2013-12-7,59.0,48.9,39.4,39.4,27.0,17.4,54,43,35,30.99,30.84,13,3,20,0.17
2013-12-8,57.2,44.8,35.4,29.8,22.2,14.5,51,41,35,31.02,30.90,8,1,8,0.00
2013-12-9,64.0,48.3,35.1,35.1,24.3,14.4,49,39,34,31.02,31.02,22,5,24,0.00
2013-12-10,67.5,49.3,34.0,37.4,23.9,12.2,40,37,33,31.02,30.96,10,2,13,0.00
2013-12-11,68.2,49.2,34.9,37.9,24.7,12.9,49,38,33,31.02,30.99,8,1,10,0.00
2013-12-12,64.0,51.9,40.8,37.6,30.7,23.7,55,45,35,31.02,31.02,7,2,9,0.00
2013-12-13,64.0,50.3,39.4,38.3,31.6,27.9,68,50,34,31.02,31.02,7,1,10,0.00
2013-12-14,72.5,53.8,39.9,43.3,32.4,25.0,75,46,32,31.02,31.02,8,2,11,0.00
2013-12-15,81.0,59.2,41.2,46.6,31.2,18.1,39,35,30,31.02,31.02,9,2,13,0.00
2013-12-16,75.0,58.9,47.3,42.3,31.6,22.3,42,36,31,31.02,31.02,8,1,10,0.00
2013-12-17,70.0,58.1,45.9,40.6,33.3,25.5,49,40,32,31.02,30.99,5,1,10,0.00
2013-12-18,68.9,58.9,52.9,52.0,39.3,32.5,70,49,33,31.02,30.87,10,3,13,0.00
2013-12-19,58.8,54.2,44.8,37.0,30.9,28.2,52,41,36,30.90,23.22,8,3,11,0.12
2013-12-20,62.8,50.3,39.7,45.1,31.5,26.8,75,50,34,30.96,23.01,9,2,13,0.00
2013-12-21,63.9,51.4,42.6,35.6,31.0,27.0,59,46,34,17.73,17.73,10,2,13,0.00
2013-12-22,66.0,51.4,41.0,46.8,32.3,27.1,75,50,33,30.34,17.73,11,1,11,0.00
2013-12-23,75.7,56.1,41.9,48.2,34.5,23.9,79,47,31,30.37,30.25,8,2,11,0.00
2013-12-24,71.1,54.8,42.3,39.7,30.3,22.5,48,40,32,30.25,30.16,5,1,6,0.00
2013-12-25,84.6,65.1,47.7,48.7,35.5,23.4,41,34,29,30.25,30.19,14,4,20,0.00
2013-12-26,84.6,58.9,42.8,48.7,30.8,18.9,38,35,29,30.22,30.13,8,2,15,0.00
2013-12-27,79.7,55.6,41.0,45.5,28.6,18.0,39,36,30,30.22,30.13,11,1,13,0.00
2013-12-28,66.9,55.2,45.5,39.6,32.1,24.3,57,42,33,30.13,29.99,10,2,13,0.00
2013-12-29,76.3,56.4,44.8,55.8,37.1,21.4,92,53,31,30.19,30.07,8,2,11,0.00
2013-12-30,71.2,51.8,37.9,39.9,26.5,15.8,48,38,32,30.31,30.19,6,1,9,0.00
2013-12-31,63.7,49.9,37.2,36.7,28.9,20.8,53,45,34,30.25,30.16,10,1,10,0.00
2014-1-1,64.4,50.4,39.9,55.4,34.0,26.4,86,55,33,30.19,30.13,6,1,9,0.00
2014-1-2,67.3,52.8,40.3,48.9,33.8,26.2,72,50,33,30.16,30.07,6,1,8,0.00